Time;durP1;ratioP1;P1;durP2;ratioP2;P2;SDS_P1;SDS_P2;PMS_P1;PMS_P2;Temp;Humidity;BMP_temperature;BMP_pressure;BME280_temperature;BME280_humidity;BME280_pressure;Samples;Min_cycle;Max_cycle;Signal;HPM_P1;HPM_P2
2021/11/26 00:01:59;;;;;;;57.40;30.10;;;;;;;-1.90;93.64;94625.75;5031276;28;20216;-83
2021/11/26 00:04:25;;;;;;;59.90;29.57;;;;;;;-1.86;93.73;94627.19;5017248;28;20288;-82
2021/11/26 00:06:51;;;;;;;61.20;31.37;;;;;;;-1.86;93.09;94627.19;5031777;28;20192;-84
2021/11/26 00:09:16;;;;;;;59.60;30.83;;;;;;;-1.84;93.67;94617.75;5047131;28;20219;-83
2021/11/26 00:11:41;;;;;;;53.13;29.13;;;;;;;-1.87;93.55;94613.66;5018367;28;20181;-83
2021/11/26 00:14:15;;;;;;;58.67;29.97;;;;;;;-1.82;93.70;94608.28;5051577;28;20199;-82
2021/11/26 00:16:41;;;;;;;55.87;29.93;;;;;;;-1.88;93.13;94608.66;5036448;28;20187;-82
2021/11/26 00:19:07;;;;;;;54.67;27.50;;;;;;;-1.94;92.74;94598.84;5034880;28;20553;-83
2021/11/26 00:21:35;;;;;;;55.77;30.00;;;;;;;-1.90;93.70;94595.22;5047557;28;20180;-85
2021/11/26 00:24:01;;;;;;;60.50;31.17;;;;;;;-1.91;93.49;94593.59;5038470;28;20214;-82
2021/11/26 00:26:27;;;;;;;55.13;30.50;;;;;;;-1.91;93.31;94586.78;5031598;28;20554;-83
2021/11/26 00:28:52;;;;;;;61.77;30.87;;;;;;;-1.89;93.72;94587.50;5045954;28;20219;-81
2021/11/26 00:31:17;;;;;;;57.57;30.57;;;;;;;-1.82;93.78;94578.56;5040266;28;20197;-83
2021/11/26 00:33:42;;;;;;;63.50;32.13;;;;;;;-1.74;93.83;94583.16;5042509;28;20223;-81
2021/11/26 00:36:08;;;;;;;57.87;30.37;;;;;;;-1.73;93.63;94572.88;5030286;28;20211;-82
2021/11/26 00:38:33;;;;;;;58.47;30.43;;;;;;;-1.72;93.41;94579.59;5048559;28;20194;-84
2021/11/26 00:40:58;;;;;;;56.63;30.20;;;;;;;-1.74;93.29;94567.91;5067466;28;20192;-82
2021/11/26 00:43:24;;;;;;;56.17;29.87;;;;;;;-1.72;93.20;94563.53;5023040;28;20209;-82
2021/11/26 00:45:49;;;;;;;55.70;29.27;;;;;;;-1.78;93.06;94559.63;5039446;28;20667;-83
2021/11/26 00:48:15;;;;;;;56.97;29.10;;;;;;;-1.75;93.69;94559.44;5047721;28;20228;-83
2021/11/26 00:50:40;;;;;;;55.60;29.63;;;;;;;-1.72;93.29;94559.25;5048285;28;20188;-82
2021/11/26 00:53:05;;;;;;;61.90;30.20;;;;;;;-1.72;93.40;94555.88;5039068;28;20204;-83
2021/11/26 00:55:31;;;;;;;58.57;29.90;;;;;;;-1.69;93.44;94558.22;5025660;28;20189;-83
2021/11/26 00:57:57;;;;;;;61.77;30.30;;;;;;;-1.65;93.47;94563.94;5056772;28;20201;-85
2021/11/26 01:00:22;;;;;;;57.30;30.20;;;;;;;-1.72;93.01;94559.25;5059331;28;20200;-83
2021/11/26 01:02:49;;;;;;;53.07;29.70;;;;;;;-1.68;93.48;94562.41;5027438;28;20749;-85
2021/11/26 01:05:14;;;;;;;54.97;29.23;;;;;;;-1.69;93.57;94558.22;5037182;28;20194;-83
2021/11/26 01:07:41;;;;;;;57.07;30.47;;;;;;;-1.68;93.69;94559.84;5043803;28;20232;-83
2021/11/26 01:10:09;;;;;;;53.20;29.77;;;;;;;-1.71;93.14;94554.97;5036579;28;20664;-82
2021/11/26 01:12:35;;;;;;;58.67;29.37;;;;;;;-1.83;93.73;94548.13;5028803;28;20277;-83
2021/11/26 01:15:02;;;;;;;54.77;27.17;;;;;;;-1.86;93.89;94543.22;5052936;28;20185;-82
2021/11/26 01:17:27;;;;;;;59.93;30.50;;;;;;;-1.78;94.05;94541.81;5035580;28;20181;-84
2021/11/26 01:19:52;;;;;;;61.10;31.00;;;;;;;-1.73;94.29;94551.72;5019598;28;20179;-83
2021/11/26 01:22:18;;;;;;;59.47;29.87;;;;;;;-1.68;94.45;94554.75;5020305;28;20248;-83
2021/11/26 01:24:43;;;;;;;61.27;30.60;;;;;;;-1.75;93.68;94548.44;5034982;28;20185;-84
2021/11/26 01:27:08;;;;;;;52.67;28.03;;;;;;;-1.74;93.66;94548.34;5019873;28;20280;-83
2021/11/26 01:29:34;;;;;;;67.77;31.40;;;;;;;-1.65;94.01;94548.69;5039922;28;20209;-83
2021/11/26 01:32:01;;;;;;;52.37;28.63;;;;;;;-1.61;94.21;94545.00;5044776;28;20190;-82
2021/11/26 01:34:26;;;;;;;56.10;29.93;;;;;;;-1.69;93.73;94537.84;5054995;28;20775;-83
2021/11/26 01:36:52;;;;;;;55.37;28.33;;;;;;;-1.75;93.60;94543.38;5051128;28;20196;-83
2021/11/26 01:39:17;;;;;;;53.23;27.50;;;;;;;-1.68;93.99;94536.94;5055025;28;20320;-84
2021/11/26 01:41:43;;;;;;;56.53;29.50;;;;;;;-1.61;94.19;94525.44;5020428;28;20565;-84
2021/11/26 01:44:09;;;;;;;57.03;28.97;;;;;;;-1.59;93.94;94523.66;5026485;28;20196;-84
2021/11/26 01:46:43;;;;;;;53.77;28.83;;;;;;;-1.58;93.62;94527.81;5033635;28;20238;-85
2021/11/26 01:49:09;;;;;;;57.77;29.27;;;;;;;-1.58;93.76;94524.47;5054694;28;20227;-83
2021/11/26 01:51:34;;;;;;;58.43;30.10;;;;;;;-1.55;93.38;94517.44;5027775;28;20196;-83
2021/11/26 01:54:02;;;;;;;57.00;30.90;;;;;;;-1.56;92.99;94520.06;5041090;28;20201;-84
2021/11/26 01:56:28;;;;;;;61.13;29.93;;;;;;;-1.50;93.99;94525.59;5062473;28;20185;-83
2021/11/26 01:58:53;;;;;;;57.23;29.53;;;;;;;-1.54;92.89;94519.06;5062932;28;20188;-83
2021/11/26 02:01:19;;;;;;;51.13;27.50;;;;;;;-1.53;93.22;94523.22;5053336;28;20249;-84
2021/11/26 02:03:45;;;;;;;56.10;27.50;;;;;;;-1.49;93.12;94513.69;5039255;28;20672;-82
2021/11/26 02:06:10;;;;;;;53.57;27.37;;;;;;;-1.51;92.95;94512.94;5049007;28;20251;-82
2021/11/26 02:08:36;;;;;;;57.37;28.87;;;;;;;-1.50;93.66;94512.88;5032385;28;20193;-82
2021/11/26 02:11:01;;;;;;;53.73;28.30;;;;;;;-1.52;93.33;94514.66;5024475;28;20177;-81
2021/11/26 02:13:26;;;;;;;56.20;28.67;;;;;;;-1.54;93.77;94511.41;5026430;28;20710;-81
2021/11/26 02:15:54;;;;;;;53.60;27.83;;;;;;;-1.54;93.49;94497.88;5031031;28;20562;-82
2021/11/26 02:18:19;;;;;;;54.13;27.33;;;;;;;-1.59;93.28;94502.44;5043685;28;20177;-83
2021/11/26 02:20:45;;;;;;;58.70;29.37;;;;;;;-1.60;93.73;94498.25;5016903;28;20242;-82
2021/11/26 02:23:11;;;;;;;60.73;28.93;;;;;;;-1.56;94.05;94497.16;5033736;28;20194;-82
2021/11/26 02:25:37;;;;;;;55.80;27.67;;;;;;;-1.50;93.84;94494.22;5016540;28;20194;-82
2021/11/26 02:28:04;;;;;;;54.00;28.03;;;;;;;-1.48;93.97;94489.84;5022915;28;20292;-82
2021/11/26 02:30:30;;;;;;;52.17;27.83;;;;;;;-1.48;93.59;94489.84;5053512;28;20180;-85
2021/11/26 02:32:59;;;;;;;51.70;27.27;;;;;;;-1.50;93.35;94482.31;5044301;28;20232;-85
2021/11/26 02:35:25;;;;;;;51.87;26.37;;;;;;;-1.49;93.44;94483.13;5053447;28;20180;-83
2021/11/26 02:37:51;;;;;;;50.93;27.00;;;;;;;-1.44;93.85;94483.63;5023223;28;20271;-83
2021/11/26 02:40:19;;;;;;;50.77;27.23;;;;;;;-1.47;93.65;94476.19;5037419;28;20219;-83
2021/11/26 02:42:45;;;;;;;55.23;27.77;;;;;;;-1.44;93.88;94483.63;5026206;28;20251;-82
2021/11/26 02:45:12;;;;;;;58.50;29.43;;;;;;;-1.44;93.82;94484.44;5035237;28;20191;-82
2021/11/26 02:47:39;;;;;;;55.43;28.40;;;;;;;-1.44;93.80;94475.97;5037159;28;20179;-82
2021/11/26 02:50:07;;;;;;;52.33;28.63;;;;;;;-1.48;93.78;94475.38;5021881;28;20200;-82
2021/11/26 02:52:34;;;;;;;55.83;28.67;;;;;;;-1.52;93.45;94473.13;5015941;28;20352;-82
2021/11/26 02:55:00;;;;;;;50.63;27.37;;;;;;;-1.53;94.06;94467.22;5023651;28;20192;-82
2021/11/26 02:57:25;;;;;;;53.97;28.97;;;;;;;-1.51;93.63;94465.38;5034560;28;20554;-83
2021/11/26 02:59:51;;;;;;;54.23;27.43;;;;;;;-1.51;93.81;94459.47;5016426;28;20189;-83
2021/11/26 03:02:16;;;;;;;57.87;27.43;;;;;;;-1.59;93.69;94451.53;5035436;28;20228;-82
2021/11/26 03:04:41;;;;;;;51.73;27.20;;;;;;;-1.66;93.56;94447.78;5029361;28;20213;-82
2021/11/26 03:07:09;;;;;;;53.67;26.90;;;;;;;-1.68;93.32;94458.03;5031375;28;20185;-81
2021/11/26 03:09:35;;;;;;;50.00;27.43;;;;;;;-1.66;93.68;94453.69;5034962;28;20209;-84
2021/11/26 03:12:00;;;;;;;51.13;26.50;;;;;;;-1.59;94.04;94447.28;5045096;28;20185;-82
2021/11/26 03:14:26;;;;;;;48.00;25.17;;;;;;;-1.57;93.55;94447.97;5016112;28;20195;-82
2021/11/26 03:16:52;;;;;;;49.03;25.13;;;;;;;-1.59;93.43;94447.28;5029804;28;20188;-82
2021/11/26 03:19:18;;;;;;;48.70;24.70;;;;;;;-1.54;93.20;94439.31;5035183;28;20223;-84
2021/11/26 03:21:43;;;;;;;52.30;24.53;;;;;;;-1.52;93.66;94438.28;5050638;28;20268;-82
2021/11/26 03:24:08;;;;;;;44.03;22.43;;;;;;;-1.42;92.77;94428.28;5035300;28;20211;-83
2021/11/26 03:26:34;;;;;;;47.13;21.93;;;;;;;-1.44;93.24;94430.13;5059147;28;20696;-83
2021/11/26 03:28:59;;;;;;;46.43;22.83;;;;;;;-1.47;93.36;94427.81;5035316;28;20219;-83
2021/11/26 03:31:24;;;;;;;42.40;20.37;;;;;;;-1.47;93.00;94425.25;5034252;28;20188;-82
2021/11/26 03:33:50;;;;;;;42.93;21.60;;;;;;;-1.42;93.60;94429.09;5031285;28;20205;-83
2021/11/26 03:36:15;;;;;;;42.23;20.13;;;;;;;-1.40;93.24;94434.13;5037147;28;20524;-82
2021/11/26 03:38:40;;;;;;;38.00;19.53;;;;;;;-1.39;93.10;94422.22;5044285;28;20255;-82
2021/11/26 03:41:06;;;;;;;45.23;20.40;;;;;;;-1.34;93.47;94408.22;5035071;28;20173;-83
2021/11/26 03:43:31;;;;;;;41.90;20.97;;;;;;;-1.31;93.31;94397.03;5049176;28;20200;-83
2021/11/26 03:45:56;;;;;;;40.60;20.27;;;;;;;-1.39;93.16;94386.56;5037790;28;20216;-81
2021/11/26 03:48:22;;;;;;;37.10;20.20;;;;;;;-1.45;93.44;94392.88;5035052;28;20196;-82
2021/11/26 03:50:47;;;;;;;38.90;19.87;;;;;;;-1.35;93.48;94398.16;5038299;28;20189;-83
2021/11/26 03:53:12;;;;;;;40.47;20.97;;;;;;;-1.38;93.15;94391.53;5030349;28;20734;-83
2021/11/26 03:55:38;;;;;;;36.70;18.63;;;;;;;-1.48;94.36;94383.72;5031325;28;20213;-84
2021/11/26 03:58:03;;;;;;;37.40;19.87;;;;;;;-1.52;94.48;94376.38;5026574;28;20189;-84
2021/11/26 04:00:28;;;;;;;37.53;18.90;;;;;;;-1.51;94.76;94363.53;5031177;28;20198;-83
2021/11/26 04:02:54;;;;;;;42.17;21.47;;;;;;;-1.45;94.87;94358.03;5044651;28;20299;-84
2021/11/26 04:05:20;;;;;;;39.80;19.60;;;;;;;-1.48;94.60;94363.34;5048898;28;20189;-87
2021/11/26 04:07:46;;;;;;;31.20;17.67;;;;;;;-1.51;95.38;94365.25;5063484;28;20228;-83
2021/11/26 04:10:12;;;;;;;38.47;19.40;;;;;;;-1.42;95.45;94364.63;5043463;28;20255;-85
2021/11/26 04:12:38;;;;;;;38.63;19.53;;;;;;;-1.43;95.42;94365.56;5059432;28;20451;-85
2021/11/26 04:15:06;;;;;;;40.50;19.50;;;;;;;-1.45;94.98;94358.03;5028540;28;20205;-83
2021/11/26 04:17:32;;;;;;;40.07;21.27;;;;;;;-1.38;95.58;94357.63;5040644;28;20664;-84
2021/11/26 04:19:57;;;;;;;39.13;19.27;;;;;;;-1.39;95.21;94364.44;5057399;28;20183;-83
2021/11/26 04:22:22;;;;;;;39.77;19.10;;;;;;;-1.38;95.15;94355.88;5039995;28;20247;-84
2021/11/26 04:24:48;;;;;;;38.90;19.67;;;;;;;-1.33;95.03;94355.56;5050263;28;20333;-86
2021/11/26 04:27:13;;;;;;;36.17;19.23;;;;;;;-1.30;95.50;94350.28;5039246;28;20235;-83
2021/11/26 04:29:38;;;;;;;38.80;19.10;;;;;;;-1.32;95.24;94352.94;5036528;28;20707;-84
2021/11/26 04:32:04;;;;;;;38.53;20.37;;;;;;;-1.28;95.30;94338.25;5035502;28;20217;-84
2021/11/26 04:34:30;;;;;;;40.20;19.83;;;;;;;-1.28;95.27;94345.88;5052822;28;20197;-84
2021/11/26 04:36:55;;;;;;;36.70;19.27;;;;;;;-1.25;95.13;94353.28;5056102;28;20298;-84
2021/11/26 04:39:20;;;;;;;38.60;19.27;;;;;;;-1.31;95.06;94343.56;5039297;28;20581;-85
2021/11/26 04:41:46;;;;;;;37.47;19.77;;;;;;;-1.28;95.13;94344.16;5038664;28;20287;-84
2021/11/26 04:44:11;;;;;;;45.30;21.37;;;;;;;-1.25;95.16;94343.91;5038681;28;20196;-84
2021/11/26 04:46:37;;;;;;;40.60;22.27;;;;;;;-1.21;95.45;94337.72;5036882;28;20250;-84
2021/11/26 04:49:05;;;;;;;40.27;20.03;;;;;;;-1.21;95.40;94335.16;5025290;28;20203;-82
2021/11/26 04:51:30;;;;;;;40.77;18.90;;;;;;;-1.19;95.14;94343.50;5038256;28;20191;-83
2021/11/26 04:53:55;;;;;;;38.07;20.13;;;;;;;-1.19;95.08;94335.88;5066019;28;20235;-83
2021/11/26 04:56:21;;;;;;;37.63;19.87;;;;;;;-1.25;95.26;94327.81;5021402;28;20194;-83
2021/11/26 04:58:46;;;;;;;39.90;20.20;;;;;;;-1.23;94.99;94319.19;5019282;28;20192;-83
2021/11/26 05:01:11;;;;;;;39.53;19.93;;;;;;;-1.28;94.82;94315.31;5038877;28;20231;-85
2021/11/26 05:03:37;;;;;;;40.17;20.43;;;;;;;-1.22;95.96;94320.81;5045124;28;20205;-82
2021/11/26 05:06:02;;;;;;;39.17;21.53;;;;;;;-1.21;95.39;94319.88;5038344;28;20349;-83
2021/11/26 05:08:27;;;;;;;39.17;18.17;;;;;;;-1.19;95.49;94317.22;5053209;28;20205;-84
2021/11/26 05:10:54;;;;;;;42.13;20.07;;;;;;;-1.17;95.62;94328.91;5037770;28;20219;-83
2021/11/26 05:13:21;;;;;;;41.47;20.30;;;;;;;-1.18;95.25;94323.94;5034383;28;20213;-85
2021/11/26 05:15:47;;;;;;;36.33;18.60;;;;;;;-1.17;95.37;94320.47;5037675;28;20234;-83
2021/11/26 05:18:12;;;;;;;38.13;21.00;;;;;;;-1.15;95.45;94318.63;5033951;28;20185;-83
2021/11/26 05:20:38;;;;;;;43.40;23.17;;;;;;;-1.11;95.42;94322.59;5062077;28;20188;-84
2021/11/26 05:23:03;;;;;;;45.57;22.37;;;;;;;-1.11;95.46;94309.84;5038795;28;20217;-83
2021/11/26 05:25:29;;;;;;;43.27;21.20;;;;;;;-1.10;95.46;94308.94;5042291;28;20295;-84
2021/11/26 05:27:54;;;;;;;44.30;21.67;;;;;;;-1.10;95.32;94311.47;5036220;28;20645;-84
2021/11/26 05:30:20;;;;;;;44.87;22.20;;;;;;;-1.09;95.41;94307.19;5027792;28;20199;-84
2021/11/26 05:32:47;;;;;;;53.08;28.02;;;;;;;-1.13;95.31;94309.16;5054349;28;20431;-84
2021/11/26 05:35:13;;;;;;;46.13;25.40;;;;;;;-1.15;95.43;94306.72;5027042;28;20192;-83
2021/11/26 05:37:39;;;;;;;49.37;26.83;;;;;;;-1.17;95.11;94306.00;5031413;28;20174;-82
2021/11/26 05:40:07;;;;;;;70.87;45.53;;;;;;;-1.11;95.08;94301.41;5053430;28;20168;-83
2021/11/26 05:42:33;;;;;;;66.60;37.87;;;;;;;-1.12;95.51;94308.22;5054161;28;20754;-83
2021/11/26 05:44:59;;;;;;;63.77;40.33;;;;;;;-1.14;95.40;94302.44;5018700;28;20246;-82
2021/11/26 05:47:24;;;;;;;51.80;32.77;;;;;;;-1.12;95.55;94302.31;5044929;28;20188;-81
2021/11/26 05:49:50;;;;;;;51.47;28.77;;;;;;;-1.15;95.58;94299.09;5063607;28;20208;-83
2021/11/26 05:52:15;;;;;;;43.47;24.50;;;;;;;-1.14;95.35;94292.25;5070132;28;20262;-84
2021/11/26 05:54:40;;;;;;;45.97;23.43;;;;;;;-1.17;95.28;94287.34;5036828;28;20185;-83
2021/11/26 05:57:06;;;;;;;43.27;23.50;;;;;;;-1.15;95.33;94288.03;5053117;28;20177;-83
2021/11/26 05:59:31;;;;;;;46.67;23.60;;;;;;;-1.13;95.80;94285.41;5036900;28;20199;-84
2021/11/26 06:01:58;;;;;;;42.63;21.00;;;;;;;-1.13;95.53;94283.69;5039679;28;20181;-82
2021/11/26 06:04:27;;;;;;;43.63;24.17;;;;;;;-1.11;95.61;94278.47;5049890;28;20656;-83
2021/11/26 06:06:52;;;;;;;44.50;23.10;;;;;;;-1.09;95.81;94279.16;5023717;28;20178;-83
2021/11/26 06:09:17;;;;;;;41.83;21.97;;;;;;;-1.16;95.88;94269.41;5036062;28;20213;-84
2021/11/26 06:11:43;;;;;;;44.40;24.87;;;;;;;-1.20;96.05;94269.75;5036590;28;20203;-83
2021/11/26 06:14:08;;;;;;;48.37;22.80;;;;;;;-1.16;96.40;94268.59;5031012;28;20234;-82
2021/11/26 06:16:33;;;;;;;44.40;22.77;;;;;;;-1.13;96.44;94275.22;5054115;28;20204;-83
2021/11/26 06:18:59;;;;;;;45.37;23.77;;;;;;;-1.10;96.20;94275.00;5050837;28;20181;-83
2021/11/26 06:21:24;;;;;;;41.73;22.43;;;;;;;-1.10;96.40;94275.00;5035236;28;20192;-83
2021/11/26 06:23:49;;;;;;;43.20;24.00;;;;;;;-1.09;96.63;94267.25;5069393;28;20212;-82
2021/11/26 06:26:15;;;;;;;42.33;22.77;;;;;;;-1.09;96.44;94263.88;5046473;28;20184;-83
2021/11/26 06:28:40;;;;;;;41.07;23.73;;;;;;;-1.09;96.92;94257.06;5033410;28;20797;-83
2021/11/26 06:31:05;;;;;;;41.70;21.97;;;;;;;-1.11;96.26;94264.00;5022581;28;20177;-81
2021/11/26 06:33:30;;;;;;;43.17;21.40;;;;;;;-1.11;96.95;94258.91;5029052;28;20197;-82
2021/11/26 06:35:57;;;;;;;40.10;22.20;;;;;;;-1.07;96.61;94255.19;5033173;28;20268;-81
2021/11/26 06:38:22;;;;;;;39.03;21.83;;;;;;;-1.05;96.63;94255.94;5015715;28;20182;-82
2021/11/26 06:40:48;;;;;;;42.43;23.70;;;;;;;-1.09;96.62;94251.97;5023076;28;20185;-85
2021/11/26 06:43:13;;;;;;;47.07;24.07;;;;;;;-1.08;96.63;94252.78;5039962;28;20249;-82
2021/11/26 06:45:39;;;;;;;49.00;23.63;;;;;;;-1.08;96.75;94243.38;5039050;28;20192;-82
2021/11/26 06:48:04;;;;;;;39.90;22.77;;;;;;;-1.13;96.67;94244.66;5034966;28;20188;-81
2021/11/26 06:50:30;;;;;;;42.63;22.80;;;;;;;-1.13;96.97;94240.38;5043171;28;20184;-81
2021/11/26 06:52:55;;;;;;;46.07;25.17;;;;;;;-1.17;97.20;94244.84;5039922;28;20216;-84
2021/11/26 06:55:22;;;;;;;45.10;23.63;;;;;;;-1.16;97.54;94235.47;5039873;28;20583;-82
2021/11/26 06:57:47;;;;;;;41.37;21.77;;;;;;;-1.23;97.79;94237.66;5044851;28;20189;-83
2021/11/26 07:00:14;;;;;;;42.67;23.33;;;;;;;-1.16;97.82;94243.94;5035136;28;20178;-82
2021/11/26 07:02:40;;;;;;;43.10;23.43;;;;;;;-1.11;97.85;94243.63;5048931;28;20733;-83
2021/11/26 07:05:06;;;;;;;45.27;23.10;;;;;;;-1.09;97.78;94238.41;5033638;28;20183;-83
2021/11/26 07:07:31;;;;;;;40.97;22.57;;;;;;;-1.08;97.76;94229.84;5038261;28;20188;-83
2021/11/26 07:09:57;;;;;;;38.37;20.67;;;;;;;-1.09;97.34;94225.66;5026459;28;20213;-83
2021/11/26 07:12:22;;;;;;;43.87;23.13;;;;;;;-1.07;97.45;94231.47;5042806;28;20209;-83
2021/11/26 07:14:47;;;;;;;41.83;21.37;;;;;;;-1.07;97.57;94228.91;5049340;28;20209;-83
2021/11/26 07:17:14;;;;;;;39.80;21.37;;;;;;;-1.03;97.59;94220.94;5034895;28;20270;-82
2021/11/26 07:19:40;;;;;;;40.23;21.43;;;;;;;-0.97;97.21;94223.06;5031142;28;20174;-83
2021/11/26 07:22:05;;;;;;;39.30;21.50;;;;;;;-0.97;97.16;94219.69;5015947;28;20285;-82
2021/11/26 07:24:31;;;;;;;39.87;20.40;;;;;;;-0.92;97.57;94213.34;5032023;28;20186;-82
2021/11/26 07:26:56;;;;;;;37.40;21.17;;;;;;;-0.94;97.09;94212.66;5020373;28;20268;-82
2021/11/26 07:29:22;;;;;;;42.90;23.27;;;;;;;-0.97;97.35;94210.34;5050754;28;20216;-83
2021/11/26 07:31:47;;;;;;;41.33;23.23;;;;;;;-0.95;96.96;94211.03;5037218;28;20544;-83
2021/11/26 07:34:12;;;;;;;40.17;22.77;;;;;;;-0.93;97.02;94209.16;5014439;28;20177;-83
2021/11/26 07:36:38;;;;;;;41.17;21.63;;;;;;;-0.92;96.75;94212.53;5046617;28;20186;-84
2021/11/26 07:39:04;;;;;;;41.27;21.00;;;;;;;-0.97;97.10;94212.88;5060303;28;20195;-80
2021/11/26 07:41:29;;;;;;;37.37;20.20;;;;;;;-0.87;97.40;94211.28;5033817;28;20704;-82
2021/11/26 07:43:55;;;;;;;35.90;20.83;;;;;;;-0.78;96.99;94209.81;5052452;28;20574;-80
2021/11/26 07:46:21;;;;;;;42.50;22.50;;;;;;;-0.75;97.05;94206.22;5047073;28;20210;-82
2021/11/26 07:48:46;;;;;;;33.70;19.07;;;;;;;-0.72;96.72;94193.22;5032200;28;20212;-82
2021/11/26 07:51:11;;;;;;;36.50;20.80;;;;;;;-0.68;97.06;94202.28;5054320;28;20180;-80
2021/11/26 07:53:37;;;;;;;38.70;20.80;;;;;;;-0.66;96.51;94192.78;5035157;28;20208;-81
2021/11/26 07:56:02;;;;;;;38.37;21.07;;;;;;;-0.61;96.23;94191.53;5032231;28;20269;-82
2021/11/26 07:58:28;;;;;;;38.07;20.77;;;;;;;-0.57;96.18;94187.00;5050538;28;20228;-82
2021/11/26 08:00:53;;;;;;;37.33;20.70;;;;;;;-0.60;95.87;94182.94;5016147;28;20213;-81
2021/11/26 08:03:21;;;;;;;40.70;21.30;;;;;;;-0.63;95.65;94177.25;5028390;28;20209;-83
2021/11/26 08:05:46;;;;;;;35.30;20.23;;;;;;;-0.60;96.01;94175.31;5034389;28;20193;-82
2021/11/26 08:08:12;;;;;;;36.30;19.07;;;;;;;-0.62;95.94;94178.88;5060527;28;20174;-82
2021/11/26 08:10:38;;;;;;;34.40;19.00;;;;;;;-0.54;95.37;94163.81;5033501;28;20212;-83
2021/11/26 08:13:04;;;;;;;34.03;17.23;;;;;;;-0.54;95.23;94158.72;5051397;28;20201;-83
2021/11/26 08:15:31;;;;;;;34.27;19.13;;;;;;;-0.48;95.15;94160.81;5041692;28;20676;-83
2021/11/26 08:17:58;;;;;;;35.27;18.13;;;;;;;-0.40;94.72;94157.69;5026456;28;20181;-83
2021/11/26 08:20:23;;;;;;;35.67;18.63;;;;;;;-0.40;94.93;94157.69;5016518;28;20270;-83
2021/11/26 08:22:49;;;;;;;43.17;21.37;;;;;;;-0.40;94.87;94155.16;5030813;28;20205;-83
2021/11/26 08:25:16;;;;;;;40.23;21.47;;;;;;;-0.32;94.24;94145.19;5033261;28;20195;-82
2021/11/26 08:27:41;;;;;;;34.23;20.07;;;;;;;-0.34;94.23;94141.94;5051728;28;20238;-83
2021/11/26 08:30:07;;;;;;;36.20;18.80;;;;;;;-0.29;93.42;94138.09;5033166;28;20210;-83
2021/11/26 08:32:33;;;;;;;37.23;21.03;;;;;;;-0.48;93.31;94132.75;5049251;28;20280;-83
2021/11/26 08:34:59;;;;;;;36.67;20.03;;;;;;;-0.38;93.70;94130.31;5029703;28;20186;-82
2021/11/26 08:37:25;;;;;;;34.30;19.43;;;;;;;-0.45;93.33;94129.97;5053562;28;20173;-81
2021/11/26 08:39:50;;;;;;;35.47;19.63;;;;;;;-0.26;93.73;94118.41;5020534;28;20200;-82
2021/11/26 08:42:16;;;;;;;38.83;21.37;;;;;;;-0.32;93.07;94120.47;5030306;28;20684;-82
2021/11/26 08:44:41;;;;;;;36.43;19.53;;;;;;;-0.21;92.93;94114.53;5036272;28;20189;-82
2021/11/26 08:47:07;;;;;;;37.33;20.37;;;;;;;-0.11;93.18;94112.91;5054636;28;20260;-82
2021/11/26 08:49:32;;;;;;;36.17;20.90;;;;;;;-0.05;93.12;94112.44;5051747;28;20193;-81
2021/11/26 08:51:57;;;;;;;37.47;20.47;;;;;;;-0.23;92.51;94113.06;5034327;28;20193;-83
2021/11/26 08:54:25;;;;;;;35.83;19.40;;;;;;;-0.11;91.79;94119.75;5053261;28;20176;-81
2021/11/26 08:56:54;;;;;;;34.77;20.10;;;;;;;-0.02;92.60;94112.19;5044301;28;20208;-81
2021/11/26 08:59:19;;;;;;;35.17;20.87;;;;;;;0.03;92.58;94114.41;5039552;28;20196;-83
2021/11/26 09:01:44;;;;;;;38.37;19.07;;;;;;;0.21;91.94;94105.31;5030823;28;20661;-83
2021/11/26 09:04:11;;;;;;;36.30;19.53;;;;;;;0.21;91.37;94112.97;5041444;28;20229;-83
2021/11/26 09:06:37;;;;;;;37.80;19.73;;;;;;;0.21;91.63;94110.41;5036834;28;20669;-83
2021/11/26 09:09:02;;;;;;;37.47;19.50;;;;;;;0.17;91.67;94110.75;5041890;28;20209;-81
2021/11/26 09:11:27;;;;;;;35.27;18.23;;;;;;;0.12;91.16;94113.69;5032046;28;20182;-80
2021/11/26 09:13:53;;;;;;;33.27;18.63;;;;;;;0.02;91.63;94109.44;5044884;28;20205;-82
2021/11/26 09:16:18;;;;;;;36.23;18.70;;;;;;;0.10;91.74;94105.34;5037901;28;20179;-85
2021/11/26 09:18:43;;;;;;;32.60;18.27;;;;;;;0.22;91.78;94106.13;5067111;28;20184;-84
2021/11/26 09:21:09;;;;;;;38.13;19.47;;;;;;;0.21;91.22;94102.75;5019480;28;20183;-84
2021/11/26 09:23:35;;;;;;;41.13;24.97;;;;;;;0.19;91.24;94108.91;5038421;28;20212;-82
2021/11/26 09:26:00;;;;;;;36.50;22.27;;;;;;;0.21;90.90;94110.41;5050936;28;20665;-82
2021/11/26 09:28:27;;;;;;;33.50;17.43;;;;;;;0.12;91.21;94103.47;5057911;28;20573;-84
2021/11/26 09:30:52;;;;;;;31.47;17.10;;;;;;;0.06;91.78;94109.06;5041941;28;20196;-83
2021/11/26 09:33:19;;;;;;;31.37;18.70;;;;;;;0.10;91.75;94100.25;5038750;28;20207;-82
2021/11/26 09:35:45;;;;;;;29.13;16.77;;;;;;;0.10;91.89;94099.44;5047080;28;20542;-83
2021/11/26 09:38:10;;;;;;;31.70;18.30;;;;;;;0.14;91.47;94099.06;5037571;28;20254;-81
2021/11/26 09:40:36;;;;;;;39.33;24.30;;;;;;;0.16;91.75;94097.19;5051269;28;20644;-81
2021/11/26 09:43:02;;;;;;;39.93;22.53;;;;;;;0.22;91.52;94099.28;5022283;28;20272;-83
2021/11/26 09:45:31;;;;;;;31.23;18.23;;;;;;;0.24;91.44;94094.84;5036119;28;20228;-83
2021/11/26 09:47:56;;;;;;;30.67;17.83;;;;;;;0.27;91.37;94086.97;5020694;28;20178;-84
2021/11/26 09:50:25;;;;;;;31.80;17.77;;;;;;;0.26;91.40;94087.88;5023375;28;20299;-83
2021/11/26 09:52:50;;;;;;;33.20;18.13;;;;;;;0.32;91.11;94085.78;5051465;28;20602;-84
2021/11/26 09:55:17;;;;;;;31.50;16.77;;;;;;;0.26;91.23;94080.22;5036515;28;20189;-84
2021/11/26 09:57:44;;;;;;;28.73;16.50;;;;;;;0.38;91.37;94072.53;5040502;28;20736;-82
2021/11/26 10:00:11;;;;;;;27.87;17.77;;;;;;;0.37;90.61;94076.03;5035765;28;20181;-83
2021/11/26 10:02:37;;;;;;;26.00;16.43;;;;;;;0.55;90.90;94070.25;5038260;28;20267;-81
2021/11/26 10:05:07;;;;;;;26.90;14.97;;;;;;;0.66;90.62;94056.59;5054425;28;20567;-84
2021/11/26 10:07:59;;;;;;;24.97;14.40;;;;;;;0.70;90.03;94052.84;5060651;28;20189;-83
2021/11/26 10:10:32;;;;;;;27.67;15.83;;;;;;;0.88;89.65;94049.72;5024410;28;20595;-82
2021/11/26 10:13:05;;;;;;;35.70;21.63;;;;;;;1.01;89.05;94046.06;5048662;28;20233;-81
2021/11/26 10:15:45;;;;;;;28.43;17.90;;;;;;;1.07;88.56;94043.00;5043434;28;20194;-83
2021/11/26 10:18:23;;;;;;;30.67;19.53;;;;;;;1.09;88.23;94037.75;5045846;28;20201;-82
2021/11/26 10:20:56;;;;;;;29.67;18.70;;;;;;;1.17;88.23;94034.56;5043364;28;20189;-82
2021/11/26 10:23:23;;;;;;;26.67;15.93;;;;;;;1.17;88.04;94032.00;5040922;28;20213;-81
2021/11/26 10:25:48;;;;;;;45.93;27.80;;;;;;;1.19;87.23;94023.25;5036705;28;20208;-84
2021/11/26 10:28:16;;;;;;;46.27;30.23;;;;;;;1.13;86.95;94018.66;5051969;28;20182;-83
2021/11/26 10:30:44;;;;;;;32.90;24.77;;;;;;;1.07;86.07;94016.63;5040378;28;20183;-83
2021/11/26 10:33:16;;;;;;;31.60;20.17;;;;;;;1.17;87.21;94017.47;5037502;28;20210;-82
2021/11/26 10:35:44;;;;;;;24.67;14.23;;;;;;;1.08;86.84;94013.94;5052398;28;20328;-82
2021/11/26 10:38:26;;;;;;;22.37;15.33;;;;;;;1.12;86.90;94009.38;5050040;28;20193;-81
2021/11/26 10:40:54;;;;;;;27.83;17.00;;;;;;;1.24;86.72;94010.91;5036835;28;20225;-81
2021/11/26 10:43:38;;;;;;;27.57;16.40;;;;;;;1.30;86.42;94002.72;5051189;28;20205;-82
2021/11/26 10:46:27;;;;;;;21.13;14.20;;;;;;;1.29;85.94;93995.97;5058587;28;20186;-81
2021/11/26 10:48:58;;;;;;;26.03;16.60;;;;;;;1.34;85.86;93995.59;5051478;28;20331;-82
2021/11/26 10:57:10;;;;;;;27.60;16.83;;;;;;;1.55;85.08;93980.97;5044899;28;20455;-81
2021/11/26 10:59:36;;;;;;;21.90;15.60;;;;;;;1.65;85.49;93978.44;5037753;28;20177;-82
2021/11/26 11:02:02;;;;;;;27.93;17.03;;;;;;;1.66;85.32;93969.81;5036801;28;20232;-81
2021/11/26 11:04:29;;;;;;;26.47;15.47;;;;;;;1.79;84.54;93964.47;5037593;28;20179;-80
2021/11/26 11:07:19;;;;;;;24.13;15.70;;;;;;;1.94;84.16;93963.94;5042213;28;20205;-85
2021/11/26 11:09:51;;;;;;;23.57;15.27;;;;;;;1.82;84.32;93959.88;5035269;28;20194;-81
2021/11/26 11:12:17;;;;;;;27.67;15.50;;;;;;;1.84;83.55;93960.53;5053539;28;20210;-83
2021/11/26 11:14:56;;;;;;;24.77;15.50;;;;;;;1.73;83.25;93953.00;5043671;28;20181;-82
2021/11/26 11:17:24;;;;;;;23.80;15.60;;;;;;;1.83;84.35;93943.56;5043960;28;20787;-83
2021/11/26 11:19:52;;;;;;;23.17;15.77;;;;;;;1.99;84.10;93940.47;5032674;28;20234;-81
2021/11/26 11:22:17;;;;;;;30.03;16.30;;;;;;;1.73;82.01;93939.38;5035436;28;20215;-83